sensor_id;sensor_type;location;lat;lon;timestamp;P1;durP1;ratioP1;P2;durP2;ratioP2
1999;SDS011;1001;48.87406500;9.59633600;2022-08-21T00:02:25;5.00;;;3.07;;
1999;SDS011;1001;48.87406500;9.59633600;2022-08-21T00:04:53;4.10;;;3.60;;
1999;SDS011;1001;48.87406500;9.59633600;2022-08-21T00:07:20;4.20;;;3.10;;
1999;SDS011;1001;48.87406500;9.59633600;2022-08-21T00:09:48;6.60;;;3.47;;
1999;SDS011;1001;48.87406500;9.59633600;2022-08-21T00:12:15;4.93;;;3.10;;
1999;SDS011;1001;48.87406500;9.59633600;2022-08-21T00:14:41;3.13;;;2.77;;
1999;SDS011;1001;48.87406500;9.59633600;2022-08-21T00:17:08;3.27;;;2.87;;
1999;SDS011;1001;48.87406500;9.59633600;2022-08-21T00:19:35;2.83;;;2.60;;
1999;SDS011;1001;48.87406500;9.59633600;2022-08-21T00:22:02;5.87;;;2.90;;
1999;SDS011;1001;48.87406500;9.59633600;2022-08-21T00:24:28;6.80;;;3.63;;
1999;SDS011;1001;48.87406500;9.59633600;2022-08-21T00:26:57;2.70;;;2.50;;
1999;SDS011;1001;48.87406500;9.59633600;2022-08-21T00:29:23;3.60;;;3.03;;
1999;SDS011;1001;48.87406500;9.59633600;2022-08-21T00:31:50;3.60;;;3.30;;
1999;SDS011;1001;48.87406500;9.59633600;2022-08-21T00:34:17;5.03;;;3.37;;
1999;SDS011;1001;48.87406500;9.59633600;2022-08-21T00:36:43;5.43;;;3.10;;
1999;SDS011;1001;48.87406500;9.59633600;2022-08-21T00:39:10;4.63;;;3.83;;
1999;SDS011;1001;48.87406500;9.59633600;2022-08-21T00:41:37;3.97;;;3.60;;
1999;SDS011;1001;48.87406500;9.59633600;2022-08-21T00:44:07;3.97;;;3.57;;
1999;SDS011;1001;48.87406500;9.59633600;2022-08-21T00:46:36;4.17;;;3.50;;
1999;SDS011;1001;48.87406500;9.59633600;2022-08-21T00:49:04;6.80;;;3.30;;
1999;SDS011;1001;48.87406500;9.59633600;2022-08-21T00:51:33;4.70;;;2.90;;
1999;SDS011;1001;48.87406500;9.59633600;2022-08-21T00:54:03;2.67;;;2.27;;
1999;SDS011;1001;48.87406500;9.59633600;2022-08-21T00:56:31;3.90;;;2.77;;
1999;SDS011;1001;48.87406500;9.59633600;2022-08-21T00:58:58;3.23;;;2.80;;
1999;SDS011;1001;48.87406500;9.59633600;2022-08-21T01:01:28;3.37;;;2.30;;
1999;SDS011;1001;48.87406500;9.59633600;2022-08-21T01:03:54;2.97;;;2.57;;
1999;SDS011;1001;48.87406500;9.59633600;2022-08-21T01:06:21;7.90;;;2.70;;
1999;SDS011;1001;48.87406500;9.59633600;2022-08-21T01:08:48;3.63;;;2.33;;
1999;SDS011;1001;48.87406500;9.59633600;2022-08-21T01:11:15;2.40;;;2.20;;
1999;SDS011;1001;48.87406500;9.59633600;2022-08-21T01:13:42;3.03;;;2.83;;
1999;SDS011;1001;48.87406500;9.59633600;2022-08-21T01:16:11;3.70;;;2.90;;
1999;SDS011;1001;48.87406500;9.59633600;2022-08-21T01:18:43;5.33;;;3.27;;
1999;SDS011;1001;48.87406500;9.59633600;2022-08-21T01:21:12;4.50;;;4.07;;
1999;SDS011;1001;48.87406500;9.59633600;2022-08-21T01:23:42;3.33;;;2.97;;
1999;SDS011;1001;48.87406500;9.59633600;2022-08-21T01:26:13;3.37;;;2.93;;
1999;SDS011;1001;48.87406500;9.59633600;2022-08-21T01:28:42;3.50;;;3.10;;
1999;SDS011;1001;48.87406500;9.59633600;2022-08-21T01:31:12;5.10;;;3.20;;
1999;SDS011;1001;48.87406500;9.59633600;2022-08-21T01:33:41;2.73;;;2.53;;
1999;SDS011;1001;48.87406500;9.59633600;2022-08-21T01:36:07;4.13;;;3.10;;
1999;SDS011;1001;48.87406500;9.59633600;2022-08-21T01:38:35;6.10;;;3.10;;
1999;SDS011;1001;48.87406500;9.59633600;2022-08-21T01:41:02;5.07;;;2.83;;
1999;SDS011;1001;48.87406500;9.59633600;2022-08-21T01:43:29;4.23;;;2.97;;
1999;SDS011;1001;48.87406500;9.59633600;2022-08-21T01:45:55;3.70;;;2.40;;
1999;SDS011;1001;48.87406500;9.59633600;2022-08-21T01:48:22;4.23;;;3.03;;
1999;SDS011;1001;48.87406500;9.59633600;2022-08-21T01:50:49;3.53;;;3.13;;
1999;SDS011;1001;48.87406500;9.59633600;2022-08-21T01:53:16;2.83;;;2.63;;
1999;SDS011;1001;48.87406500;9.59633600;2022-08-21T01:55:44;3.23;;;2.90;;
1999;SDS011;1001;48.87406500;9.59633600;2022-08-21T01:58:10;4.90;;;3.50;;
1999;SDS011;1001;48.87406500;9.59633600;2022-08-21T02:00:37;4.13;;;3.73;;
1999;SDS011;1001;48.87406500;9.59633600;2022-08-21T02:03:04;4.90;;;4.40;;
1999;SDS011;1001;48.87406500;9.59633600;2022-08-21T02:05:31;5.57;;;3.80;;
1999;SDS011;1001;48.87406500;9.59633600;2022-08-21T02:07:58;3.87;;;3.40;;
1999;SDS011;1001;48.87406500;9.59633600;2022-08-21T02:10:25;3.83;;;3.33;;
1999;SDS011;1001;48.87406500;9.59633600;2022-08-21T02:12:55;5.47;;;3.23;;
1999;SDS011;1001;48.87406500;9.59633600;2022-08-21T02:15:23;5.20;;;3.30;;
1999;SDS011;1001;48.87406500;9.59633600;2022-08-21T02:17:52;3.60;;;3.13;;
1999;SDS011;1001;48.87406500;9.59633600;2022-08-21T02:20:21;5.10;;;3.77;;
1999;SDS011;1001;48.87406500;9.59633600;2022-08-21T02:22:50;4.47;;;3.60;;
1999;SDS011;1001;48.87406500;9.59633600;2022-08-21T02:25:17;4.00;;;3.27;;
1999;SDS011;1001;48.87406500;9.59633600;2022-08-21T02:27:45;4.53;;;3.43;;
1999;SDS011;1001;48.87406500;9.59633600;2022-08-21T02:30:15;5.03;;;3.77;;
1999;SDS011;1001;48.87406500;9.59633600;2022-08-21T02:32:44;4.63;;;4.17;;
1999;SDS011;1001;48.87406500;9.59633600;2022-08-21T02:35:11;4.67;;;4.10;;
1999;SDS011;1001;48.87406500;9.59633600;2022-08-21T02:37:45;5.27;;;3.80;;
1999;SDS011;1001;48.87406500;9.59633600;2022-08-21T02:40:14;4.50;;;4.10;;
1999;SDS011;1001;48.87406500;9.59633600;2022-08-21T02:42:42;4.10;;;3.80;;
1999;SDS011;1001;48.87406500;9.59633600;2022-08-21T02:45:10;5.97;;;4.37;;
1999;SDS011;1001;48.87406500;9.59633600;2022-08-21T02:47:40;3.87;;;3.47;;
1999;SDS011;1001;48.87406500;9.59633600;2022-08-21T02:50:12;4.00;;;3.60;;
1999;SDS011;1001;48.87406500;9.59633600;2022-08-21T02:52:39;4.13;;;3.70;;
1999;SDS011;1001;48.87406500;9.59633600;2022-08-21T02:55:06;12.57;;;3.47;;
1999;SDS011;1001;48.87406500;9.59633600;2022-08-21T02:57:32;5.33;;;3.90;;
1999;SDS011;1001;48.87406500;9.59633600;2022-08-21T02:59:59;5.10;;;4.10;;
1999;SDS011;1001;48.87406500;9.59633600;2022-08-21T03:02:26;3.83;;;3.53;;
1999;SDS011;1001;48.87406500;9.59633600;2022-08-21T03:04:54;4.07;;;3.57;;
1999;SDS011;1001;48.87406500;9.59633600;2022-08-21T03:07:20;5.00;;;3.20;;
1999;SDS011;1001;48.87406500;9.59633600;2022-08-21T03:09:47;4.70;;;3.20;;
1999;SDS011;1001;48.87406500;9.59633600;2022-08-21T03:12:14;3.80;;;2.90;;
1999;SDS011;1001;48.87406500;9.59633600;2022-08-21T03:14:40;5.07;;;3.20;;
1999;SDS011;1001;48.87406500;9.59633600;2022-08-21T03:17:07;4.20;;;3.20;;
1999;SDS011;1001;48.87406500;9.59633600;2022-08-21T03:19:34;4.70;;;3.80;;
1999;SDS011;1001;48.87406500;9.59633600;2022-08-21T03:22:02;4.30;;;3.60;;
1999;SDS011;1001;48.87406500;9.59633600;2022-08-21T03:24:30;7.90;;;3.83;;
1999;SDS011;1001;48.87406500;9.59633600;2022-08-21T03:26:57;8.33;;;3.73;;
1999;SDS011;1001;48.87406500;9.59633600;2022-08-21T03:29:24;4.23;;;3.83;;
1999;SDS011;1001;48.87406500;9.59633600;2022-08-21T03:31:51;5.27;;;3.80;;
1999;SDS011;1001;48.87406500;9.59633600;2022-08-21T03:34:18;5.83;;;3.67;;
1999;SDS011;1001;48.87406500;9.59633600;2022-08-21T03:36:45;4.00;;;3.60;;
1999;SDS011;1001;48.87406500;9.59633600;2022-08-21T03:39:13;4.20;;;3.80;;
1999;SDS011;1001;48.87406500;9.59633600;2022-08-21T03:41:40;5.63;;;4.00;;
1999;SDS011;1001;48.87406500;9.59633600;2022-08-21T03:44:06;4.13;;;3.70;;
1999;SDS011;1001;48.87406500;9.59633600;2022-08-21T03:46:33;7.13;;;3.60;;
1999;SDS011;1001;48.87406500;9.59633600;2022-08-21T03:49:00;4.33;;;3.30;;
1999;SDS011;1001;48.87406500;9.59633600;2022-08-21T03:51:27;6.70;;;3.63;;
1999;SDS011;1001;48.87406500;9.59633600;2022-08-21T03:53:53;4.87;;;3.30;;
1999;SDS011;1001;48.87406500;9.59633600;2022-08-21T03:56:22;10.43;;;3.50;;
1999;SDS011;1001;48.87406500;9.59633600;2022-08-21T03:58:48;4.20;;;3.43;;
1999;SDS011;1001;48.87406500;9.59633600;2022-08-21T04:01:15;4.80;;;4.40;;
1999;SDS011;1001;48.87406500;9.59633600;2022-08-21T04:03:42;3.83;;;3.53;;
1999;SDS011;1001;48.87406500;9.59633600;2022-08-21T04:06:08;4.10;;;3.70;;
1999;SDS011;1001;48.87406500;9.59633600;2022-08-21T04:08:35;10.23;;;3.90;;
1999;SDS011;1001;48.87406500;9.59633600;2022-08-21T04:11:02;5.27;;;4.07;;
1999;SDS011;1001;48.87406500;9.59633600;2022-08-21T04:13:30;7.63;;;4.30;;
1999;SDS011;1001;48.87406500;9.59633600;2022-08-21T04:15:57;3.80;;;3.47;;
1999;SDS011;1001;48.87406500;9.59633600;2022-08-21T04:18:24;5.20;;;3.80;;
1999;SDS011;1001;48.87406500;9.59633600;2022-08-21T04:20:51;4.70;;;3.63;;
1999;SDS011;1001;48.87406500;9.59633600;2022-08-21T04:23:20;6.63;;;3.87;;
1999;SDS011;1001;48.87406500;9.59633600;2022-08-21T04:25:49;8.73;;;3.73;;
1999;SDS011;1001;48.87406500;9.59633600;2022-08-21T04:28:16;5.23;;;3.50;;
1999;SDS011;1001;48.87406500;9.59633600;2022-08-21T04:30:44;3.67;;;2.90;;
1999;SDS011;1001;48.87406500;9.59633600;2022-08-21T04:33:11;3.37;;;3.07;;
1999;SDS011;1001;48.87406500;9.59633600;2022-08-21T04:35:38;3.43;;;3.10;;
1999;SDS011;1001;48.87406500;9.59633600;2022-08-21T04:38:05;4.80;;;4.30;;
1999;SDS011;1001;48.87406500;9.59633600;2022-08-21T04:40:31;5.53;;;3.80;;
1999;SDS011;1001;48.87406500;9.59633600;2022-08-21T04:43:01;6.00;;;3.40;;
1999;SDS011;1001;48.87406500;9.59633600;2022-08-21T04:45:32;6.80;;;4.57;;
1999;SDS011;1001;48.87406500;9.59633600;2022-08-21T04:48:03;7.33;;;3.83;;
1999;SDS011;1001;48.87406500;9.59633600;2022-08-21T04:50:45;4.27;;;3.53;;
1999;SDS011;1001;48.87406500;9.59633600;2022-08-21T04:53:18;5.50;;;3.50;;
1999;SDS011;1001;48.87406500;9.59633600;2022-08-21T04:55:48;3.93;;;3.63;;
1999;SDS011;1001;48.87406500;9.59633600;2022-08-21T04:58:16;4.97;;;3.23;;
1999;SDS011;1001;48.87406500;9.59633600;2022-08-21T05:00:44;7.93;;;3.80;;
1999;SDS011;1001;48.87406500;9.59633600;2022-08-21T05:03:13;5.03;;;4.00;;
1999;SDS011;1001;48.87406500;9.59633600;2022-08-21T05:05:42;4.90;;;3.70;;
1999;SDS011;1001;48.87406500;9.59633600;2022-08-21T05:08:11;5.63;;;3.77;;
1999;SDS011;1001;48.87406500;9.59633600;2022-08-21T05:10:41;5.73;;;3.67;;
1999;SDS011;1001;48.87406500;9.59633600;2022-08-21T05:13:09;7.80;;;3.60;;
1999;SDS011;1001;48.87406500;9.59633600;2022-08-21T05:15:37;5.20;;;3.70;;
1999;SDS011;1001;48.87406500;9.59633600;2022-08-21T05:18:04;5.67;;;3.63;;
1999;SDS011;1001;48.87406500;9.59633600;2022-08-21T05:20:32;8.80;;;4.10;;
1999;SDS011;1001;48.87406500;9.59633600;2022-08-21T05:22:59;4.37;;;3.73;;
1999;SDS011;1001;48.87406500;9.59633600;2022-08-21T05:25:27;5.83;;;3.90;;
1999;SDS011;1001;48.87406500;9.59633600;2022-08-21T05:27:53;7.53;;;4.00;;
1999;SDS011;1001;48.87406500;9.59633600;2022-08-21T05:30:21;8.87;;;3.80;;
1999;SDS011;1001;48.87406500;9.59633600;2022-08-21T05:32:47;5.33;;;3.20;;
1999;SDS011;1001;48.87406500;9.59633600;2022-08-21T05:35:14;5.37;;;3.40;;
1999;SDS011;1001;48.87406500;9.59633600;2022-08-21T05:37:42;4.20;;;3.30;;
1999;SDS011;1001;48.87406500;9.59633600;2022-08-21T05:40:09;5.30;;;3.30;;
1999;SDS011;1001;48.87406500;9.59633600;2022-08-21T05:42:36;6.10;;;3.50;;
1999;SDS011;1001;48.87406500;9.59633600;2022-08-21T05:45:03;4.50;;;3.63;;
1999;SDS011;1001;48.87406500;9.59633600;2022-08-21T05:47:30;5.30;;;3.53;;
1999;SDS011;1001;48.87406500;9.59633600;2022-08-21T05:49:57;4.60;;;4.20;;
1999;SDS011;1001;48.87406500;9.59633600;2022-08-21T05:52:24;4.00;;;3.57;;
1999;SDS011;1001;48.87406500;9.59633600;2022-08-21T05:54:52;11.80;;;4.27;;
1999;SDS011;1001;48.87406500;9.59633600;2022-08-21T05:57:19;6.00;;;3.63;;
1999;SDS011;1001;48.87406500;9.59633600;2022-08-21T05:59:47;5.73;;;3.30;;
1999;SDS011;1001;48.87406500;9.59633600;2022-08-21T06:02:13;6.33;;;3.90;;
1999;SDS011;1001;48.87406500;9.59633600;2022-08-21T06:04:42;8.83;;;3.60;;
1999;SDS011;1001;48.87406500;9.59633600;2022-08-21T06:07:09;4.60;;;3.87;;
1999;SDS011;1001;48.87406500;9.59633600;2022-08-21T06:09:36;7.67;;;3.87;;
1999;SDS011;1001;48.87406500;9.59633600;2022-08-21T06:12:05;4.07;;;3.50;;
1999;SDS011;1001;48.87406500;9.59633600;2022-08-21T06:14:33;12.37;;;4.13;;
1999;SDS011;1001;48.87406500;9.59633600;2022-08-21T06:17:03;4.23;;;3.53;;
1999;SDS011;1001;48.87406500;9.59633600;2022-08-21T06:19:30;5.40;;;3.43;;
1999;SDS011;1001;48.87406500;9.59633600;2022-08-21T06:21:57;4.20;;;3.57;;
1999;SDS011;1001;48.87406500;9.59633600;2022-08-21T06:24:24;4.40;;;3.37;;
1999;SDS011;1001;48.87406500;9.59633600;2022-08-21T06:26:51;7.10;;;3.73;;
1999;SDS011;1001;48.87406500;9.59633600;2022-08-21T06:29:20;3.40;;;3.10;;
1999;SDS011;1001;48.87406500;9.59633600;2022-08-21T06:31:48;4.00;;;3.27;;
1999;SDS011;1001;48.87406500;9.59633600;2022-08-21T06:34:15;5.73;;;3.30;;
1999;SDS011;1001;48.87406500;9.59633600;2022-08-21T06:36:43;7.03;;;2.90;;
1999;SDS011;1001;48.87406500;9.59633600;2022-08-21T06:39:10;4.93;;;2.77;;
1999;SDS011;1001;48.87406500;9.59633600;2022-08-21T06:41:38;3.03;;;2.77;;
1999;SDS011;1001;48.87406500;9.59633600;2022-08-21T06:44:05;3.43;;;2.57;;
1999;SDS011;1001;48.87406500;9.59633600;2022-08-21T06:46:33;5.63;;;3.67;;
1999;SDS011;1001;48.87406500;9.59633600;2022-08-21T06:49:00;8.10;;;3.30;;
1999;SDS011;1001;48.87406500;9.59633600;2022-08-21T06:51:27;4.43;;;2.77;;
1999;SDS011;1001;48.87406500;9.59633600;2022-08-21T06:53:53;2.90;;;2.30;;
1999;SDS011;1001;48.87406500;9.59633600;2022-08-21T06:56:21;6.13;;;3.33;;
1999;SDS011;1001;48.87406500;9.59633600;2022-08-21T06:58:48;5.07;;;2.83;;
1999;SDS011;1001;48.87406500;9.59633600;2022-08-21T07:01:14;7.57;;;3.30;;
1999;SDS011;1001;48.87406500;9.59633600;2022-08-21T07:03:43;8.67;;;3.17;;
1999;SDS011;1001;48.87406500;9.59633600;2022-08-21T07:06:10;6.33;;;2.70;;
1999;SDS011;1001;48.87406500;9.59633600;2022-08-21T07:08:37;4.50;;;3.07;;
1999;SDS011;1001;48.87406500;9.59633600;2022-08-21T07:11:07;4.70;;;2.50;;
1999;SDS011;1001;48.87406500;9.59633600;2022-08-21T07:13:37;5.00;;;2.90;;
1999;SDS011;1001;48.87406500;9.59633600;2022-08-21T07:16:04;6.57;;;4.17;;
1999;SDS011;1001;48.87406500;9.59633600;2022-08-21T07:18:31;7.50;;;2.67;;
1999;SDS011;1001;48.87406500;9.59633600;2022-08-21T07:20:59;3.37;;;2.57;;
1999;SDS011;1001;48.87406500;9.59633600;2022-08-21T07:23:28;6.80;;;3.50;;
1999;SDS011;1001;48.87406500;9.59633600;2022-08-21T07:25:56;5.53;;;3.10;;
1999;SDS011;1001;48.87406500;9.59633600;2022-08-21T07:28:24;5.37;;;3.27;;
1999;SDS011;1001;48.87406500;9.59633600;2022-08-21T07:30:51;8.53;;;3.57;;
1999;SDS011;1001;48.87406500;9.59633600;2022-08-21T07:33:20;4.33;;;3.07;;
1999;SDS011;1001;48.87406500;9.59633600;2022-08-21T07:35:47;4.00;;;3.20;;
1999;SDS011;1001;48.87406500;9.59633600;2022-08-21T07:38:15;5.13;;;3.80;;
1999;SDS011;1001;48.87406500;9.59633600;2022-08-21T07:40:43;4.10;;;3.77;;
1999;SDS011;1001;48.87406500;9.59633600;2022-08-21T07:43:10;4.43;;;3.83;;
1999;SDS011;1001;48.87406500;9.59633600;2022-08-21T07:45:37;5.13;;;4.73;;
1999;SDS011;1001;48.87406500;9.59633600;2022-08-21T07:48:04;4.53;;;4.07;;
1999;SDS011;1001;48.87406500;9.59633600;2022-08-21T07:50:31;8.33;;;4.53;;
1999;SDS011;1001;48.87406500;9.59633600;2022-08-21T07:52:57;7.03;;;5.03;;
1999;SDS011;1001;48.87406500;9.59633600;2022-08-21T07:55:26;7.03;;;4.63;;
1999;SDS011;1001;48.87406500;9.59633600;2022-08-21T07:57:52;5.57;;;4.50;;
1999;SDS011;1001;48.87406500;9.59633600;2022-08-21T08:00:20;5.53;;;4.80;;
1999;SDS011;1001;48.87406500;9.59633600;2022-08-21T08:02:53;8.30;;;5.60;;
1999;SDS011;1001;48.87406500;9.59633600;2022-08-21T08:05:21;4.80;;;4.40;;
1999;SDS011;1001;48.87406500;9.59633600;2022-08-21T08:07:50;4.53;;;3.97;;
1999;SDS011;1001;48.87406500;9.59633600;2022-08-21T08:10:17;5.53;;;3.97;;
1999;SDS011;1001;48.87406500;9.59633600;2022-08-21T08:12:46;5.53;;;3.40;;
1999;SDS011;1001;48.87406500;9.59633600;2022-08-21T08:15:15;6.33;;;4.20;;
1999;SDS011;1001;48.87406500;9.59633600;2022-08-21T08:17:43;7.93;;;4.07;;
1999;SDS011;1001;48.87406500;9.59633600;2022-08-21T08:20:10;5.80;;;4.57;;
1999;SDS011;1001;48.87406500;9.59633600;2022-08-21T08:22:38;9.70;;;4.80;;
1999;SDS011;1001;48.87406500;9.59633600;2022-08-21T08:25:07;6.87;;;4.37;;
1999;SDS011;1001;48.87406500;9.59633600;2022-08-21T08:27:34;11.23;;;4.27;;
1999;SDS011;1001;48.87406500;9.59633600;2022-08-21T08:30:02;5.47;;;3.83;;
1999;SDS011;1001;48.87406500;9.59633600;2022-08-21T08:32:29;4.53;;;3.73;;
1999;SDS011;1001;48.87406500;9.59633600;2022-08-21T08:34:56;5.40;;;4.50;;
1999;SDS011;1001;48.87406500;9.59633600;2022-08-21T08:37:23;6.30;;;4.43;;
1999;SDS011;1001;48.87406500;9.59633600;2022-08-21T08:39:49;4.73;;;4.13;;
1999;SDS011;1001;48.87406500;9.59633600;2022-08-21T08:42:17;5.60;;;3.60;;
1999;SDS011;1001;48.87406500;9.59633600;2022-08-21T08:44:52;4.90;;;4.40;;
1999;SDS011;1001;48.87406500;9.59633600;2022-08-21T08:47:25;6.37;;;4.30;;
1999;SDS011;1001;48.87406500;9.59633600;2022-08-21T08:49:55;4.67;;;4.27;;
1999;SDS011;1001;48.87406500;9.59633600;2022-08-21T08:52:27;5.50;;;4.97;;
1999;SDS011;1001;48.87406500;9.59633600;2022-08-21T08:54:59;5.40;;;4.70;;
1999;SDS011;1001;48.87406500;9.59633600;2022-08-21T08:57:28;7.47;;;4.83;;
1999;SDS011;1001;48.87406500;9.59633600;2022-08-21T08:59:58;4.40;;;3.90;;
1999;SDS011;1001;48.87406500;9.59633600;2022-08-21T09:02:27;6.23;;;4.90;;
1999;SDS011;1001;48.87406500;9.59633600;2022-08-21T09:04:54;6.90;;;4.17;;
1999;SDS011;1001;48.87406500;9.59633600;2022-08-21T09:07:25;6.67;;;5.10;;
1999;SDS011;1001;48.87406500;9.59633600;2022-08-21T09:10:18;6.20;;;4.30;;
1999;SDS011;1001;48.87406500;9.59633600;2022-08-21T09:12:50;4.97;;;3.73;;
1999;SDS011;1001;48.87406500;9.59633600;2022-08-21T09:15:24;5.23;;;4.20;;
1999;SDS011;1001;48.87406500;9.59633600;2022-08-21T09:18:03;5.80;;;4.43;;
1999;SDS011;1001;48.87406500;9.59633600;2022-08-21T09:20:39;7.40;;;4.77;;
1999;SDS011;1001;48.87406500;9.59633600;2022-08-21T09:23:14;4.90;;;4.50;;
1999;SDS011;1001;48.87406500;9.59633600;2022-08-21T09:25:55;5.40;;;4.70;;
1999;SDS011;1001;48.87406500;9.59633600;2022-08-21T09:28:30;4.70;;;3.90;;
1999;SDS011;1001;48.87406500;9.59633600;2022-08-21T09:30:58;5.27;;;4.00;;
1999;SDS011;1001;48.87406500;9.59633600;2022-08-21T09:33:27;4.07;;;2.97;;
1999;SDS011;1001;48.87406500;9.59633600;2022-08-21T09:35:55;5.83;;;4.10;;
1999;SDS011;1001;48.87406500;9.59633600;2022-08-21T09:38:24;5.57;;;3.90;;
1999;SDS011;1001;48.87406500;9.59633600;2022-08-21T09:40:58;8.57;;;3.83;;
1999;SDS011;1001;48.87406500;9.59633600;2022-08-21T09:43:28;8.93;;;3.70;;
1999;SDS011;1001;48.87406500;9.59633600;2022-08-21T09:46:06;10.17;;;3.90;;
1999;SDS011;1001;48.87406500;9.59633600;2022-08-21T09:48:39;10.53;;;4.40;;
1999;SDS011;1001;48.87406500;9.59633600;2022-08-21T09:51:08;6.03;;;3.93;;
1999;SDS011;1001;48.87406500;9.59633600;2022-08-21T09:53:38;6.10;;;4.17;;
1999;SDS011;1001;48.87406500;9.59633600;2022-08-21T09:56:18;6.73;;;3.40;;
1999;SDS011;1001;48.87406500;9.59633600;2022-08-21T09:59:12;6.50;;;4.40;;
1999;SDS011;1001;48.87406500;9.59633600;2022-08-21T10:01:42;6.23;;;3.80;;
1999;SDS011;1001;48.87406500;9.59633600;2022-08-21T10:04:10;5.60;;;3.83;;
1999;SDS011;1001;48.87406500;9.59633600;2022-08-21T10:06:37;5.40;;;3.50;;
1999;SDS011;1001;48.87406500;9.59633600;2022-08-21T10:09:05;4.20;;;3.80;;
1999;SDS011;1001;48.87406500;9.59633600;2022-08-21T10:11:34;5.97;;;3.60;;
1999;SDS011;1001;48.87406500;9.59633600;2022-08-21T10:14:03;5.60;;;3.17;;
1999;SDS011;1001;48.87406500;9.59633600;2022-08-21T10:16:41;6.57;;;3.20;;
1999;SDS011;1001;48.87406500;9.59633600;2022-08-21T10:19:19;11.03;;;4.50;;
1999;SDS011;1001;48.87406500;9.59633600;2022-08-21T10:21:57;6.03;;;3.57;;
1999;SDS011;1001;48.87406500;9.59633600;2022-08-21T10:24:29;6.77;;;4.43;;
1999;SDS011;1001;48.87406500;9.59633600;2022-08-21T10:27:04;7.13;;;3.20;;
1999;SDS011;1001;48.87406500;9.59633600;2022-08-21T10:29:43;6.97;;;3.57;;
1999;SDS011;1001;48.87406500;9.59633600;2022-08-21T10:32:18;6.03;;;3.53;;
1999;SDS011;1001;48.87406500;9.59633600;2022-08-21T10:34:56;4.00;;;3.57;;
1999;SDS011;1001;48.87406500;9.59633600;2022-08-21T10:37:33;5.20;;;3.80;;
1999;SDS011;1001;48.87406500;9.59633600;2022-08-21T10:40:12;6.80;;;3.10;;
1999;SDS011;1001;48.87406500;9.59633600;2022-08-21T10:42:52;7.73;;;3.63;;
1999;SDS011;1001;48.87406500;9.59633600;2022-08-21T10:45:32;8.03;;;4.03;;
1999;SDS011;1001;48.87406500;9.59633600;2022-08-21T10:48:10;4.80;;;2.90;;
1999;SDS011;1001;48.87406500;9.59633600;2022-08-21T10:50:47;4.43;;;3.37;;
1999;SDS011;1001;48.87406500;9.59633600;2022-08-21T10:53:31;5.57;;;2.83;;
1999;SDS011;1001;48.87406500;9.59633600;2022-08-21T10:56:17;7.30;;;3.33;;
1999;SDS011;1001;48.87406500;9.59633600;2022-08-21T10:58:49;6.50;;;3.10;;
1999;SDS011;1001;48.87406500;9.59633600;2022-08-21T11:01:26;4.57;;;2.77;;
1999;SDS011;1001;48.87406500;9.59633600;2022-08-21T11:04:03;7.97;;;3.77;;
1999;SDS011;1001;48.87406500;9.59633600;2022-08-21T11:06:37;7.80;;;3.63;;
1999;SDS011;1001;48.87406500;9.59633600;2022-08-21T11:09:09;5.03;;;3.00;;
1999;SDS011;1001;48.87406500;9.59633600;2022-08-21T11:11:40;7.13;;;2.90;;
1999;SDS011;1001;48.87406500;9.59633600;2022-08-21T11:14:17;6.50;;;2.40;;
1999;SDS011;1001;48.87406500;9.59633600;2022-08-21T11:16:51;3.43;;;2.73;;
1999;SDS011;1001;48.87406500;9.59633600;2022-08-21T11:19:24;7.00;;;3.13;;
1999;SDS011;1001;48.87406500;9.59633600;2022-08-21T11:21:56;4.17;;;3.20;;
1999;SDS011;1001;48.87406500;9.59633600;2022-08-21T11:24:30;5.87;;;2.87;;
1999;SDS011;1001;48.87406500;9.59633600;2022-08-21T11:27:03;9.70;;;3.10;;
1999;SDS011;1001;48.87406500;9.59633600;2022-08-21T11:29:43;4.83;;;2.80;;
1999;SDS011;1001;48.87406500;9.59633600;2022-08-21T11:35:25;5.67;;;3.10;;
1999;SDS011;1001;48.87406500;9.59633600;2022-08-21T11:38:01;7.13;;;3.23;;
1999;SDS011;1001;48.87406500;9.59633600;2022-08-21T11:40:39;5.27;;;3.50;;
1999;SDS011;1001;48.87406500;9.59633600;2022-08-21T11:43:16;6.93;;;3.37;;
1999;SDS011;1001;48.87406500;9.59633600;2022-08-21T11:45:53;5.53;;;3.00;;
1999;SDS011;1001;48.87406500;9.59633600;2022-08-21T11:48:26;5.57;;;3.37;;
1999;SDS011;1001;48.87406500;9.59633600;2022-08-21T11:51:04;3.53;;;2.70;;
1999;SDS011;1001;48.87406500;9.59633600;2022-08-21T11:53:38;5.10;;;3.00;;
1999;SDS011;1001;48.87406500;9.59633600;2022-08-21T11:56:16;3.37;;;2.77;;
1999;SDS011;1001;48.87406500;9.59633600;2022-08-21T11:58:48;4.37;;;3.10;;
1999;SDS011;1001;48.87406500;9.59633600;2022-08-21T12:01:19;6.53;;;3.20;;
1999;SDS011;1001;48.87406500;9.59633600;2022-08-21T12:03:51;4.80;;;3.00;;
1999;SDS011;1001;48.87406500;9.59633600;2022-08-21T12:06:28;3.33;;;2.87;;
1999;SDS011;1001;48.87406500;9.59633600;2022-08-21T12:08:58;3.70;;;2.87;;
1999;SDS011;1001;48.87406500;9.59633600;2022-08-21T12:11:25;7.10;;;3.13;;
1999;SDS011;1001;48.87406500;9.59633600;2022-08-21T12:13:53;5.87;;;3.60;;
1999;SDS011;1001;48.87406500;9.59633600;2022-08-21T12:16:30;5.93;;;2.83;;
1999;SDS011;1001;48.87406500;9.59633600;2022-08-21T12:19:05;6.30;;;3.50;;
1999;SDS011;1001;48.87406500;9.59633600;2022-08-21T12:21:32;4.67;;;2.60;;
1999;SDS011;1001;48.87406500;9.59633600;2022-08-21T12:24:02;4.00;;;3.10;;
1999;SDS011;1001;48.87406500;9.59633600;2022-08-21T12:26:32;4.17;;;2.97;;
1999;SDS011;1001;48.87406500;9.59633600;2022-08-21T12:29:11;3.20;;;2.60;;
1999;SDS011;1001;48.87406500;9.59633600;2022-08-21T12:31:51;3.23;;;2.83;;
1999;SDS011;1001;48.87406500;9.59633600;2022-08-21T12:34:28;3.50;;;2.83;;
1999;SDS011;1001;48.87406500;9.59633600;2022-08-21T12:37:01;3.93;;;2.47;;
1999;SDS011;1001;48.87406500;9.59633600;2022-08-21T12:39:31;3.87;;;2.53;;
1999;SDS011;1001;48.87406500;9.59633600;2022-08-21T12:42:00;4.77;;;2.50;;
1999;SDS011;1001;48.87406500;9.59633600;2022-08-21T12:44:34;4.17;;;2.50;;
1999;SDS011;1001;48.87406500;9.59633600;2022-08-21T12:47:13;9.00;;;3.03;;
1999;SDS011;1001;48.87406500;9.59633600;2022-08-21T12:49:44;3.70;;;2.90;;
1999;SDS011;1001;48.87406500;9.59633600;2022-08-21T12:52:19;5.00;;;2.87;;
1999;SDS011;1001;48.87406500;9.59633600;2022-08-21T12:54:48;4.83;;;2.57;;
1999;SDS011;1001;48.87406500;9.59633600;2022-08-21T12:57:19;5.30;;;2.87;;
1999;SDS011;1001;48.87406500;9.59633600;2022-08-21T12:59:51;3.10;;;2.80;;
1999;SDS011;1001;48.87406500;9.59633600;2022-08-21T13:02:21;5.53;;;2.60;;
1999;SDS011;1001;48.87406500;9.59633600;2022-08-21T13:04:50;4.50;;;2.70;;
1999;SDS011;1001;48.87406500;9.59633600;2022-08-21T13:07:22;3.90;;;2.60;;
1999;SDS011;1001;48.87406500;9.59633600;2022-08-21T13:09:53;2.73;;;2.50;;
1999;SDS011;1001;48.87406500;9.59633600;2022-08-21T13:12:23;3.90;;;2.30;;
1999;SDS011;1001;48.87406500;9.59633600;2022-08-21T13:14:50;4.30;;;3.00;;
1999;SDS011;1001;48.87406500;9.59633600;2022-08-21T13:17:19;5.60;;;2.63;;
1999;SDS011;1001;48.87406500;9.59633600;2022-08-21T13:19:53;4.93;;;3.00;;
1999;SDS011;1001;48.87406500;9.59633600;2022-08-21T13:22:21;6.20;;;3.20;;
1999;SDS011;1001;48.87406500;9.59633600;2022-08-21T13:24:48;4.13;;;3.00;;
1999;SDS011;1001;48.87406500;9.59633600;2022-08-21T13:27:18;4.23;;;3.00;;
1999;SDS011;1001;48.87406500;9.59633600;2022-08-21T13:29:47;4.37;;;2.70;;